UKLU/UDJ METAR and TAF weather

Enter ICAO airport designator
Station Type Date Time Source
UKLU METAR 2019/10/15 04:00 UTC NOAA

UKLU 150400Z 00000MPS 0700 FG NSC 06/06 Q1019 NOSIG


Station Type Date Time Source
UKLU Decoded METAR 2019/10/15 04:00 UTC NOAA

Uzhhorod, Ukraine (UKLU) 48-38-05N 022-15-53E
Oct 15, 2019 - 12:00 AM EDT / 2019.10.15 0400 UTC
Wind: Calm:0
Visibility: less than 1 mile:0
Weather: fog
Temperature: 42 F (6 C)
Dew Point: 42 F (6 C)
Relative Humidity: 100%
Pressure (altimeter): 30.09 in. Hg (1019 hPa)
ob: UKLU 150400Z 00000MPS 0700 FG NSC 06/06 Q1019 NOSIG
cycle: 4

Station Type Date Time Source
UKLU TAF 2019/04/25 06:24 UTC NOAA

TAF TAF UKLU 250504Z 2506/2615 12005MPS 9999 NSC
TEMPO 2506/2512 15007G12MPS SCT040

Example: see airport list